createdAt,value
2018-01-06T00:00:34.008Z,0.00
2018-01-06T00:01:34.003Z,0.00
2018-01-06T00:02:33.999Z,0.00
2018-01-06T00:03:33.994Z,0.00
2018-01-06T00:04:33.990Z,0.00
2018-01-06T00:05:33.984Z,0.00
2018-01-06T00:06:33.981Z,0.00
2018-01-06T00:07:33.977Z,0.00
2018-01-06T00:08:33.971Z,0.00
2018-01-06T00:09:33.967Z,0.00
2018-01-06T00:10:33.958Z,0.00
2018-01-06T00:11:33.959Z,0.00
2018-01-06T00:12:33.953Z,0.00
2018-01-06T00:13:33.950Z,0.00
2018-01-06T00:14:33.945Z,0.00
2018-01-06T00:15:33.937Z,0.00
2018-01-06T00:16:33.937Z,0.00
2018-01-06T00:17:33.927Z,0.00
2018-01-06T00:18:33.927Z,0.00
2018-01-06T00:19:33.919Z,0.00
2018-01-06T00:20:33.918Z,0.00
2018-01-06T00:21:33.915Z,0.00
2018-01-06T00:22:33.910Z,0.00
2018-01-06T00:23:33.901Z,0.00
2018-01-06T00:24:33.900Z,0.00
2018-01-06T00:25:33.897Z,0.00
2018-01-06T00:26:33.892Z,0.00
2018-01-06T00:27:33.892Z,0.00
2018-01-06T00:28:33.883Z,0.00
2018-01-06T00:29:33.874Z,0.00
2018-01-06T00:30:33.877Z,0.00
2018-01-06T00:31:33.870Z,0.00
2018-01-06T00:32:33.865Z,0.00
2018-01-06T00:33:33.860Z,0.00
2018-01-06T00:34:33.857Z,0.00
2018-01-06T00:35:33.833Z,0.00
2018-01-06T00:36:33.842Z,0.00
2018-01-06T00:37:33.827Z,0.00
2018-01-06T00:38:33.823Z,0.00
2018-01-06T00:39:33.821Z,0.00
2018-01-06T00:40:33.824Z,0.00
2018-01-06T00:41:33.809Z,0.00
2018-01-06T00:42:33.817Z,0.00
2018-01-06T00:43:33.801Z,0.00
2018-01-06T00:44:33.811Z,0.00
2018-01-06T00:45:33.807Z,0.00
2018-01-06T00:46:33.788Z,0.00
2018-01-06T00:47:33.798Z,0.00
2018-01-06T00:48:33.778Z,0.00
2018-01-06T00:49:33.776Z,0.00
2018-01-06T00:50:33.765Z,0.00
2018-01-06T00:51:33.777Z,0.00
2018-01-06T00:52:33.776Z,0.00
2018-01-06T00:53:33.771Z,0.00
2018-01-06T00:54:33.747Z,0.00
2018-01-06T00:55:33.748Z,0.00
2018-01-06T00:56:33.742Z,0.00
2018-01-06T00:57:33.754Z,0.00
2018-01-06T00:58:33.750Z,0.00
2018-01-06T00:59:33.730Z,0.00
2018-01-06T01:00:33.725Z,0.00
2018-01-06T01:01:33.734Z,0.00
2018-01-06T01:02:33.716Z,0.00
2018-01-06T01:03:33.712Z,0.00
2018-01-06T01:04:33.708Z,0.00
2018-01-06T01:05:33.703Z,0.00
2018-01-06T01:06:33.715Z,0.00
2018-01-06T01:07:33.695Z,0.00
2018-01-06T01:08:33.706Z,0.00
2018-01-06T01:09:33.697Z,0.00
2018-01-06T01:10:33.701Z,0.00
2018-01-06T01:11:33.693Z,0.00
2018-01-06T01:12:33.691Z,0.00
2018-01-06T01:13:33.683Z,0.00
2018-01-06T01:14:33.683Z,0.00
2018-01-06T01:15:33.671Z,0.00
2018-01-06T01:16:33.670Z,0.00
2018-01-06T01:17:33.662Z,0.00
2018-01-06T01:18:33.658Z,0.00
2018-01-06T01:19:33.653Z,0.00
2018-01-06T01:20:33.653Z,0.00
2018-01-06T01:21:33.644Z,0.00
2018-01-06T01:22:33.648Z,0.00
2018-01-06T01:23:33.640Z,0.00
2018-01-06T01:24:33.631Z,0.00
2018-01-06T01:25:33.630Z,0.00
2018-01-06T01:26:33.627Z,0.00
2018-01-06T01:27:33.623Z,0.00
2018-01-06T01:28:33.617Z,0.00
2018-01-06T01:29:33.617Z,0.00
2018-01-06T01:30:33.605Z,0.00
2018-01-06T01:31:33.610Z,0.00
2018-01-06T01:32:33.596Z,0.00
2018-01-06T01:33:33.596Z,0.00
2018-01-06T01:34:33.596Z,0.00
2018-01-06T01:35:33.587Z,0.00
2018-01-06T01:36:33.583Z,0.00
2018-01-06T01:37:33.575Z,0.00
2018-01-06T01:38:33.579Z,0.00
2018-01-06T01:39:33.570Z,0.00
2018-01-06T01:40:33.561Z,0.00
2018-01-06T01:41:33.561Z,0.00
2018-01-06T01:42:33.561Z,0.00
2018-01-06T01:43:33.551Z,0.00
2018-01-06T01:44:33.544Z,0.00
2018-01-06T01:45:33.539Z,0.00
2018-01-06T01:46:33.538Z,0.00
2018-01-06T01:47:33.535Z,0.00
2018-01-06T01:48:33.529Z,0.00
2018-01-06T01:49:33.521Z,0.00
2018-01-06T01:50:33.520Z,0.00
2018-01-06T01:51:33.521Z,0.00
2018-01-06T01:52:33.512Z,0.00
2018-01-06T01:53:33.508Z,0.00
2018-01-06T01:54:33.507Z,0.00
2018-01-06T01:55:33.496Z,0.00
2018-01-06T01:56:33.494Z,0.00
2018-01-06T01:57:33.490Z,0.00
2018-01-06T01:58:33.486Z,0.00
2018-01-06T01:59:33.482Z,0.00
2018-01-06T02:00:33.480Z,0.00
2018-01-06T02:01:33.477Z,0.00
2018-01-06T02:02:33.465Z,0.00
2018-01-06T02:03:33.460Z,0.00
2018-01-06T02:04:33.463Z,0.00
2018-01-06T02:05:33.459Z,0.00
2018-01-06T02:06:33.450Z,0.00
2018-01-06T02:07:33.453Z,0.00
2018-01-06T02:08:33.441Z,0.00
2018-01-06T02:09:33.441Z,0.00
2018-01-06T02:10:33.439Z,0.00
2018-01-06T02:11:33.433Z,0.00
2018-01-06T02:12:33.428Z,0.00
2018-01-06T02:13:33.423Z,0.00
2018-01-06T02:14:33.416Z,0.00
2018-01-06T02:15:33.411Z,0.00
2018-01-06T02:16:33.406Z,0.00
2018-01-06T02:17:33.402Z,0.00
2018-01-06T02:18:33.398Z,0.00
2018-01-06T02:19:33.394Z,0.00
2018-01-06T02:20:33.393Z,0.00
2018-01-06T02:21:33.388Z,0.00
2018-01-06T02:22:33.384Z,0.00
2018-01-06T02:23:33.376Z,0.00
2018-01-06T02:24:33.375Z,0.00
2018-01-06T02:25:33.367Z,0.00
2018-01-06T02:26:33.363Z,0.00
2018-01-06T02:27:33.362Z,0.00
2018-01-06T02:28:33.353Z,0.00
2018-01-06T02:29:33.353Z,0.00
2018-01-06T02:30:33.345Z,0.00
2018-01-06T02:31:33.341Z,0.00
2018-01-06T02:32:33.336Z,0.00
2018-01-06T02:33:33.333Z,0.00
2018-01-06T02:34:33.332Z,0.00
2018-01-06T02:35:33.324Z,0.00
2018-01-06T02:36:33.318Z,0.00
2018-01-06T02:37:33.320Z,0.00
2018-01-06T02:38:33.315Z,0.00
2018-01-06T02:39:33.306Z,0.00
2018-01-06T02:40:33.305Z,0.00
2018-01-06T02:41:33.297Z,0.00
2018-01-06T02:42:33.293Z,0.00
2018-01-06T02:43:33.274Z,0.00
2018-01-06T02:44:33.285Z,0.00
2018-01-06T02:45:33.279Z,0.00
2018-01-06T02:46:33.256Z,0.00
2018-01-06T02:47:33.256Z,0.00
2018-01-06T02:48:33.270Z,0.00
2018-01-06T02:49:33.243Z,0.00
2018-01-06T02:50:33.257Z,0.00
2018-01-06T02:51:33.238Z,0.00
2018-01-06T02:52:33.249Z,0.00
2018-01-06T02:53:33.240Z,0.00
2018-01-06T02:54:33.240Z,0.00
2018-01-06T02:55:33.236Z,0.00
2018-01-06T02:56:33.231Z,0.00
2018-01-06T02:57:33.223Z,0.00
2018-01-06T02:58:33.208Z,0.00
2018-01-06T02:59:33.202Z,0.00
2018-01-06T03:00:33.215Z,0.00
2018-01-06T03:01:33.193Z,0.00
2018-01-06T03:02:33.185Z,0.00
2018-01-06T03:03:33.181Z,0.00
2018-01-06T03:04:33.196Z,0.00
2018-01-06T03:05:33.176Z,0.00
2018-01-06T03:06:33.182Z,0.00
2018-01-06T03:07:33.167Z,0.00
2018-01-06T03:08:33.162Z,0.00
2018-01-06T03:09:33.169Z,0.00
2018-01-06T03:10:33.149Z,0.00
2018-01-06T03:11:33.165Z,0.00
2018-01-06T03:12:33.144Z,0.00
2018-01-06T03:13:33.138Z,0.00
2018-01-06T03:14:33.151Z,0.00
2018-01-06T03:15:33.132Z,0.00
2018-01-06T03:16:33.137Z,0.00
2018-01-06T03:17:33.133Z,0.00
2018-01-06T03:18:33.134Z,0.00
2018-01-06T03:19:33.129Z,0.00
2018-01-06T03:20:33.119Z,0.00
2018-01-06T03:21:33.100Z,0.00
2018-01-06T03:22:33.115Z,0.00
2018-01-06T03:23:33.097Z,0.00
2018-01-06T03:24:33.094Z,0.00
2018-01-06T03:25:33.083Z,0.00
2018-01-06T03:26:33.077Z,0.00
2018-01-06T03:27:33.098Z,0.00
2018-01-06T03:28:33.090Z,0.00
2018-01-06T03:29:33.082Z,0.00
2018-01-06T03:30:33.060Z,0.00
2018-01-06T03:31:33.075Z,0.00
2018-01-06T03:32:33.050Z,0.00
2018-01-06T03:33:33.066Z,0.00
2018-01-06T03:34:33.064Z,0.00
2018-01-06T03:35:33.056Z,0.00
2018-01-06T03:36:33.035Z,0.00
2018-01-06T03:37:33.031Z,0.00
2018-01-06T03:38:33.029Z,0.00
2018-01-06T03:39:33.042Z,0.00
2018-01-06T03:40:33.036Z,0.00
2018-01-06T03:41:33.036Z,0.00
2018-01-06T03:42:33.008Z,0.00
2018-01-06T03:43:33.000Z,0.00
2018-01-06T03:44:32.994Z,0.00
2018-01-06T03:45:33.010Z,0.00
2018-01-06T03:46:32.979Z,0.00
2018-01-06T03:47:32.981Z,0.00
2018-01-06T03:48:32.995Z,0.00
2018-01-06T03:49:32.973Z,0.00
2018-01-06T03:50:32.990Z,0.00
2018-01-06T03:51:33.086Z,0.00
2018-01-06T03:52:32.981Z,0.00
2018-01-06T03:53:32.947Z,0.00
2018-01-06T03:54:32.943Z,0.00
2018-01-06T03:55:32.963Z,0.00
2018-01-06T03:56:32.943Z,0.00
2018-01-06T03:57:32.929Z,0.00
2018-01-06T03:58:32.949Z,0.00
2018-01-06T03:59:32.932Z,0.00
2018-01-06T04:00:32.914Z,0.00
2018-01-06T04:01:32.909Z,0.00
2018-01-06T04:02:32.906Z,0.00
2018-01-06T04:03:32.926Z,0.00
2018-01-06T04:04:32.905Z,0.00
2018-01-06T04:05:32.896Z,0.00
2018-01-06T04:06:32.915Z,0.00
2018-01-06T04:07:32.901Z,0.00
2018-01-06T04:08:32.886Z,0.00
2018-01-06T04:09:32.878Z,0.00
2018-01-06T04:10:32.881Z,0.00
2018-01-06T04:11:32.873Z,0.00
2018-01-06T04:12:32.868Z,0.00
2018-01-06T04:13:32.873Z,0.00
2018-01-06T04:14:32.859Z,0.00
2018-01-06T04:15:32.854Z,0.00
2018-01-06T04:16:32.869Z,0.00
2018-01-06T04:17:32.846Z,0.00
2018-01-06T04:18:32.837Z,0.00
2018-01-06T04:19:32.852Z,0.00
2018-01-06T04:20:32.831Z,0.00
2018-01-06T04:21:32.828Z,0.00
2018-01-06T04:22:32.819Z,0.00
2018-01-06T04:23:32.814Z,0.00
2018-01-06T04:24:32.809Z,0.00
2018-01-06T04:25:32.805Z,0.00
2018-01-06T04:26:32.806Z,0.00
2018-01-06T04:27:32.799Z,0.00
2018-01-06T04:28:32.791Z,0.00
2018-01-06T04:29:32.792Z,0.00
2018-01-06T04:30:32.803Z,0.00
2018-01-06T04:31:32.802Z,0.00
2018-01-06T04:32:32.806Z,0.00
2018-01-06T04:33:32.770Z,0.00
2018-01-06T04:34:32.789Z,0.00
2018-01-06T04:35:32.780Z,0.00
2018-01-06T04:36:32.779Z,0.00
2018-01-06T04:37:32.775Z,0.00
2018-01-06T04:38:32.753Z,0.00
2018-01-06T04:39:32.767Z,0.00
2018-01-06T04:40:32.757Z,0.00
2018-01-06T04:41:32.753Z,0.00
2018-01-06T04:42:32.737Z,0.00
2018-01-06T04:43:32.726Z,0.00
2018-01-06T04:44:32.740Z,0.00
2018-01-06T04:45:32.736Z,0.00
2018-01-06T04:46:32.731Z,0.00
2018-01-06T04:47:32.709Z,0.00
2018-01-06T04:48:32.707Z,0.00
2018-01-06T04:49:32.722Z,0.00
2018-01-06T04:50:32.717Z,0.00
2018-01-06T04:51:32.710Z,0.00
2018-01-06T04:52:32.704Z,0.00
2018-01-06T04:53:32.681Z,0.00
2018-01-06T04:54:32.677Z,0.00
2018-01-06T04:55:32.673Z,0.00
2018-01-06T04:56:32.686Z,0.00
2018-01-06T04:57:32.664Z,0.00
2018-01-06T04:58:32.682Z,0.00
2018-01-06T04:59:32.674Z,0.00
2018-01-06T05:00:32.665Z,0.00
2018-01-06T05:01:32.661Z,0.00
2018-01-06T05:02:32.661Z,0.00
2018-01-06T05:03:32.656Z,0.00
2018-01-06T05:04:32.655Z,0.00
2018-01-06T05:05:32.651Z,0.00
2018-01-06T05:06:32.646Z,0.00
2018-01-06T05:07:32.638Z,0.00
2018-01-06T05:08:32.629Z,0.00
2018-01-06T05:09:32.630Z,0.00
2018-01-06T05:10:32.629Z,0.00
2018-01-06T05:11:32.620Z,0.00
2018-01-06T05:12:32.619Z,0.00
2018-01-06T05:13:32.615Z,0.00
2018-01-06T05:14:32.606Z,0.00
2018-01-06T05:15:32.602Z,0.00
2018-01-06T05:16:32.600Z,0.00
2018-01-06T05:17:32.592Z,0.00
2018-01-06T05:18:32.592Z,0.00
2018-01-06T05:19:32.584Z,0.00
2018-01-06T05:20:32.581Z,0.00
2018-01-06T05:21:32.576Z,0.00
2018-01-06T05:22:32.571Z,0.00
2018-01-06T05:23:32.567Z,0.00
2018-01-06T05:24:32.561Z,0.00
2018-01-06T05:25:32.557Z,0.00
2018-01-06T05:26:32.548Z,0.00
2018-01-06T05:27:32.544Z,0.00
2018-01-06T05:28:32.544Z,0.00
2018-01-06T05:29:32.538Z,0.00
2018-01-06T05:30:32.530Z,0.00
2018-01-06T05:31:32.525Z,0.00
2018-01-06T05:32:32.522Z,0.00
2018-01-06T05:33:32.521Z,0.00
2018-01-06T05:34:32.515Z,0.00
2018-01-06T05:35:32.491Z,0.00
2018-01-06T05:36:32.485Z,0.00
2018-01-06T05:37:32.499Z,0.00
2018-01-06T05:38:32.476Z,0.00
2018-01-06T05:39:32.472Z,0.00
2018-01-06T05:40:32.485Z,0.00
2018-01-06T05:41:32.461Z,0.00
2018-01-06T05:42:32.476Z,0.00
2018-01-06T05:43:32.452Z,0.00
2018-01-06T05:44:32.466Z,0.00
2018-01-06T05:45:32.461Z,0.00
2018-01-06T05:46:32.438Z,0.00
2018-01-06T05:47:32.433Z,0.00
2018-01-06T05:48:32.429Z,0.00
2018-01-06T05:49:32.442Z,0.00
2018-01-06T05:50:32.438Z,0.00
2018-01-06T05:51:32.433Z,0.00
2018-01-06T05:52:32.428Z,0.00
2018-01-06T05:53:32.404Z,0.00
2018-01-06T05:54:32.403Z,0.00
2018-01-06T05:55:32.414Z,0.00
2018-01-06T05:56:32.409Z,0.00
2018-01-06T05:57:32.405Z,0.00
2018-01-06T05:58:32.381Z,0.00
2018-01-06T05:59:32.395Z,0.00
2018-01-06T06:00:32.371Z,0.00
2018-01-06T06:01:32.386Z,0.00
2018-01-06T06:02:32.362Z,0.00
2018-01-06T06:03:32.377Z,0.00
2018-01-06T06:04:32.352Z,0.00
2018-01-06T06:05:32.348Z,0.00
2018-01-06T06:06:32.343Z,0.00
2018-01-06T06:07:32.358Z,0.00
2018-01-06T06:08:32.352Z,0.00
2018-01-06T06:09:32.329Z,0.00
2018-01-06T06:10:32.324Z,0.00
2018-01-06T06:11:32.339Z,0.00
2018-01-06T06:12:32.333Z,0.00
2018-01-06T06:13:32.309Z,0.00
2018-01-06T06:14:32.305Z,0.00
2018-01-06T06:15:32.401Z,0.00
2018-01-06T06:16:32.314Z,0.00
2018-01-06T06:17:32.291Z,0.00
2018-01-06T06:18:32.286Z,0.00
2018-01-06T06:19:32.300Z,0.00
2018-01-06T06:20:32.276Z,0.00
2018-01-06T06:21:32.394Z,0.00
2018-01-06T06:22:32.266Z,0.00
2018-01-06T06:23:32.281Z,0.00
2018-01-06T06:24:32.276Z,0.00
2018-01-06T06:25:32.270Z,0.00
2018-01-06T06:26:32.247Z,0.00
2018-01-06T06:27:32.263Z,0.00
2018-01-06T06:28:32.255Z,0.00
2018-01-06T06:29:32.251Z,0.00
2018-01-06T06:30:32.228Z,0.00
2018-01-06T06:31:32.241Z,0.00
2018-01-06T06:32:32.217Z,0.00
2018-01-06T06:33:32.231Z,0.00
2018-01-06T06:34:32.207Z,0.00
2018-01-06T06:35:32.217Z,0.00
2018-01-06T06:36:32.199Z,0.00
2018-01-06T06:37:32.188Z,0.00
2018-01-06T06:38:32.206Z,0.00
2018-01-06T06:39:32.202Z,0.00
2018-01-06T06:40:32.192Z,0.00
2018-01-06T06:41:32.162Z,0.00
2018-01-06T06:42:32.163Z,0.00
2018-01-06T06:43:32.164Z,0.00
2018-01-06T06:44:32.177Z,0.00
2018-01-06T06:45:32.149Z,0.00
2018-01-06T06:46:32.138Z,0.00
2018-01-06T06:47:32.162Z,0.00
2018-01-06T06:48:32.155Z,0.00
2018-01-06T06:49:32.153Z,0.00
2018-01-06T06:50:32.143Z,0.00
2018-01-06T06:51:32.140Z,0.00
2018-01-06T06:52:32.108Z,0.00
2018-01-06T06:53:32.133Z,0.00
2018-01-06T06:54:32.106Z,0.00
2018-01-06T06:55:32.121Z,0.00
2018-01-06T06:56:32.115Z,0.00
2018-01-06T06:57:32.109Z,0.00
2018-01-06T06:58:32.086Z,0.00
2018-01-06T06:59:32.096Z,0.00
2018-01-06T07:00:32.077Z,0.00
2018-01-06T07:01:32.091Z,0.00
2018-01-06T07:02:32.067Z,0.00
2018-01-06T07:03:32.082Z,0.00
2018-01-06T07:04:32.058Z,0.00
2018-01-06T07:05:32.053Z,0.00
2018-01-06T07:06:32.067Z,0.00
2018-01-06T07:07:32.037Z,0.00
2018-01-06T07:08:32.053Z,0.00
2018-01-06T07:09:32.033Z,0.00
2018-01-06T07:10:32.024Z,0.00
2018-01-06T07:11:32.040Z,0.00
2018-01-06T07:12:32.013Z,0.00
2018-01-06T07:13:32.026Z,0.00
2018-01-06T07:14:32.023Z,0.00
2018-01-06T07:15:32.021Z,0.00
2018-01-06T07:16:31.992Z,0.00
2018-01-06T07:17:32.008Z,0.00
2018-01-06T07:18:31.992Z,0.00
2018-01-06T07:19:31.977Z,0.00
2018-01-06T07:20:31.973Z,0.00
2018-01-06T07:21:32.092Z,0.00
2018-01-06T07:22:31.971Z,0.00
2018-01-06T07:23:31.957Z,0.00
2018-01-06T07:24:31.986Z,0.00
2018-01-06T07:25:31.972Z,0.00
2018-01-06T07:26:31.953Z,0.00
2018-01-06T07:27:31.938Z,0.00
2018-01-06T07:28:31.932Z,0.00
2018-01-06T07:29:31.946Z,0.00
2018-01-06T07:30:31.944Z,0.00
2018-01-06T07:31:31.942Z,0.00
2018-01-06T07:32:31.919Z,0.00
2018-01-06T07:33:31.908Z,0.00
2018-01-06T07:34:31.926Z,0.00
2018-01-06T07:35:31.898Z,0.00
2018-01-06T07:36:31.928Z,0.00
2018-01-06T07:37:31.888Z,0.00
2018-01-06T07:38:31.904Z,0.00
2018-01-06T07:39:31.897Z,0.00
2018-01-06T07:40:31.921Z,0.00
2018-01-06T07:41:31.893Z,0.00
2018-01-06T07:42:31.863Z,0.00
2018-01-06T07:43:31.883Z,0.00
2018-01-06T07:44:31.876Z,0.00
2018-01-06T07:45:31.848Z,0.00
2018-01-06T07:46:31.862Z,0.00
2018-01-06T07:47:31.856Z,0.00
2018-01-06T07:48:31.836Z,0.00
2018-01-06T07:49:31.833Z,0.00
2018-01-06T07:50:31.834Z,0.00
2018-01-06T07:51:31.836Z,0.00
2018-01-06T07:52:31.852Z,0.00
2018-01-06T07:53:31.822Z,0.00
2018-01-06T07:54:31.818Z,0.00
2018-01-06T07:55:31.815Z,0.00
2018-01-06T07:56:31.816Z,0.00
2018-01-06T07:57:31.911Z,0.00
2018-01-06T07:58:31.797Z,0.00
2018-01-06T07:59:31.796Z,0.00
2018-01-06T08:00:31.786Z,0.00
2018-01-06T08:01:31.785Z,0.00
2018-01-06T08:02:31.780Z,0.00
2018-01-06T08:03:31.777Z,0.00
2018-01-06T08:04:31.774Z,0.00
2018-01-06T08:05:31.765Z,0.00
2018-01-06T08:06:31.766Z,0.00
2018-01-06T08:07:31.756Z,0.00
2018-01-06T08:08:31.748Z,0.00
2018-01-06T08:09:31.844Z,0.00
2018-01-06T08:10:31.745Z,0.00
2018-01-06T08:11:31.731Z,0.00
2018-01-06T08:12:31.726Z,0.00
2018-01-06T08:13:31.726Z,0.00
2018-01-06T08:14:31.727Z,0.00
2018-01-06T08:15:31.718Z,0.00
2018-01-06T08:16:31.731Z,0.00
2018-01-06T08:17:31.707Z,0.00
2018-01-06T08:18:31.706Z,0.00
2018-01-06T08:19:31.698Z,0.00
2018-01-06T08:20:31.695Z,0.00
2018-01-06T08:21:31.792Z,0.00
2018-01-06T08:22:31.688Z,0.00
2018-01-06T08:23:31.683Z,0.00
2018-01-06T08:24:31.673Z,0.00
2018-01-06T08:25:31.649Z,0.00
2018-01-06T08:26:31.669Z,0.00
2018-01-06T08:27:31.665Z,0.00
2018-01-06T08:28:31.656Z,0.00
2018-01-06T08:29:31.650Z,0.00
2018-01-06T08:30:31.666Z,0.00
2018-01-06T08:31:31.637Z,0.00
2018-01-06T08:32:31.627Z,0.00
2018-01-06T08:33:31.628Z,0.00
2018-01-06T08:34:31.607Z,0.00
2018-01-06T08:35:31.625Z,0.00
2018-01-06T08:36:31.614Z,0.00
2018-01-06T08:37:31.610Z,0.00
2018-01-06T08:38:31.611Z,0.00
2018-01-06T08:39:31.602Z,0.00
2018-01-06T08:40:31.581Z,0.00
2018-01-06T08:41:31.598Z,0.00
2018-01-06T08:42:31.573Z,0.00
2018-01-06T08:43:31.574Z,0.00
2018-01-06T08:44:31.579Z,0.00
2018-01-06T08:45:31.559Z,0.00
2018-01-06T08:46:31.554Z,0.00
2018-01-06T08:47:31.566Z,0.00
2018-01-06T08:48:31.551Z,0.00
2018-01-06T08:49:31.542Z,0.00
2018-01-06T08:50:31.537Z,0.00
2018-01-06T08:51:31.534Z,0.00
2018-01-06T08:52:31.533Z,0.00
2018-01-06T08:53:31.523Z,0.00
2018-01-06T08:54:31.519Z,0.00
2018-01-06T08:55:31.522Z,0.00
2018-01-06T08:56:31.532Z,0.00
2018-01-06T08:57:31.528Z,0.00
2018-01-06T08:58:31.518Z,0.00
2018-01-06T08:59:31.520Z,0.00
2018-01-06T09:00:31.514Z,0.00
2018-01-06T09:01:31.514Z,0.00
2018-01-06T09:02:31.510Z,5.63
2018-01-06T09:03:31.497Z,5.63
2018-01-06T09:04:31.505Z,5.63
2018-01-06T09:05:31.497Z,5.63
2018-01-06T09:06:31.492Z,5.63
2018-01-06T09:07:31.498Z,5.63
2018-01-06T09:08:31.484Z,5.63
2018-01-06T09:09:31.480Z,5.63
2018-01-06T09:10:31.480Z,5.63
2018-01-06T09:11:31.476Z,11.25
2018-01-06T09:12:31.470Z,11.25
2018-01-06T09:13:31.467Z,11.25
2018-01-06T09:14:31.459Z,11.25
2018-01-06T09:15:31.450Z,11.25
2018-01-06T09:16:31.445Z,11.25
2018-01-06T09:17:31.445Z,11.25
2018-01-06T09:18:31.446Z,11.25
2018-01-06T09:19:31.444Z,11.25
2018-01-06T09:20:31.437Z,11.25
2018-01-06T09:21:31.439Z,11.25
2018-01-06T09:22:31.429Z,16.88
2018-01-06T09:23:31.421Z,16.88
2018-01-06T09:24:31.429Z,16.88
2018-01-06T09:25:31.416Z,16.88
2018-01-06T09:26:31.419Z,16.88
2018-01-06T09:27:31.408Z,16.88
2018-01-06T09:28:31.394Z,16.88
2018-01-06T09:29:31.400Z,22.50
2018-01-06T09:30:31.416Z,22.50
2018-01-06T09:31:31.392Z,22.50
2018-01-06T09:32:31.381Z,22.50
2018-01-06T09:33:31.383Z,22.50
2018-01-06T09:34:31.361Z,22.50
2018-01-06T09:35:31.357Z,22.50
2018-01-06T09:36:31.372Z,22.50
2018-01-06T09:37:31.349Z,22.50
2018-01-06T09:38:31.346Z,22.50
2018-01-06T09:39:31.341Z,28.13
2018-01-06T09:40:31.338Z,28.13
2018-01-06T09:41:31.333Z,22.50
2018-01-06T09:42:31.339Z,22.50
2018-01-06T09:43:31.325Z,22.50
2018-01-06T09:44:31.311Z,22.50
2018-01-06T09:45:31.318Z,22.50
2018-01-06T09:46:31.314Z,22.50
2018-01-06T09:47:31.310Z,22.50
2018-01-06T09:48:31.347Z,22.50
2018-01-06T09:49:31.302Z,22.50
2018-01-06T09:50:31.298Z,22.50
2018-01-06T09:51:31.295Z,22.50
2018-01-06T09:52:31.281Z,22.50
2018-01-06T09:53:31.287Z,22.50
2018-01-06T09:54:31.284Z,22.50
2018-01-06T09:55:31.269Z,22.50
2018-01-06T09:56:31.275Z,22.50
2018-01-06T09:57:31.272Z,22.50
2018-01-06T09:58:31.269Z,16.88
2018-01-06T09:59:31.265Z,16.88
2018-01-06T10:00:31.262Z,16.88
2018-01-06T10:01:31.248Z,16.88
2018-01-06T10:02:31.254Z,16.88
2018-01-06T10:03:31.250Z,22.50
2018-01-06T10:04:31.248Z,22.50
2018-01-06T10:05:31.242Z,16.88
2018-01-06T10:06:31.240Z,16.88
2018-01-06T10:07:31.240Z,16.88
2018-01-06T10:08:31.221Z,16.88
2018-01-06T10:09:31.219Z,16.88
2018-01-06T10:10:31.224Z,16.88
2018-01-06T10:11:31.211Z,16.88
2018-01-06T10:12:31.205Z,16.88
2018-01-06T10:13:31.204Z,16.88
2018-01-06T10:14:31.209Z,16.88
2018-01-06T10:15:31.205Z,11.25
2018-01-06T10:16:31.201Z,11.25
2018-01-06T10:17:31.197Z,11.25
2018-01-06T10:18:31.194Z,11.25
2018-01-06T10:19:31.190Z,16.88
2018-01-06T10:20:31.195Z,16.88
2018-01-06T10:21:31.182Z,22.50
2018-01-06T10:22:31.169Z,22.50
2018-01-06T10:23:31.176Z,16.88
2018-01-06T10:24:31.160Z,22.50
2018-01-06T10:25:31.163Z,16.88
2018-01-06T10:26:31.155Z,16.88
2018-01-06T10:27:31.152Z,16.88
2018-01-06T10:28:31.157Z,16.88
2018-01-06T10:29:31.149Z,16.88
2018-01-06T10:30:31.145Z,16.88
2018-01-06T10:31:31.189Z,16.88
2018-01-06T10:32:31.131Z,16.88
2018-01-06T10:33:31.135Z,16.88
2018-01-06T10:34:31.130Z,16.88
2018-01-06T10:35:31.127Z,16.88
2018-01-06T10:36:31.123Z,16.88
2018-01-06T10:37:31.114Z,16.88
2018-01-06T10:39:31.108Z,16.88
2018-01-06T10:40:31.102Z,22.50
2018-01-06T10:41:31.099Z,22.50
2018-01-06T10:42:31.102Z,22.50
2018-01-06T10:43:31.099Z,22.50
2018-01-06T10:44:31.094Z,22.50
2018-01-06T10:45:31.087Z,22.50
2018-01-06T10:46:31.083Z,22.50
2018-01-06T10:47:31.084Z,22.50
2018-01-06T10:48:31.080Z,22.50
2018-01-06T10:49:31.071Z,28.13
2018-01-06T10:50:31.073Z,28.13
2018-01-06T10:51:31.070Z,28.13
2018-01-06T10:52:31.066Z,33.75
2018-01-06T10:53:31.067Z,33.75
2018-01-06T10:54:31.064Z,33.75
2018-01-06T10:55:31.060Z,39.38
2018-01-06T10:56:31.051Z,39.38
2018-01-06T10:57:31.049Z,39.38
2018-01-06T10:58:31.039Z,39.38
2018-01-06T10:59:31.042Z,39.38
2018-01-06T11:00:31.042Z,39.38
2018-01-06T11:01:31.035Z,39.38
2018-01-06T11:02:31.027Z,39.38
2018-01-06T11:03:31.022Z,39.38
2018-01-06T11:04:31.019Z,39.38
2018-01-06T11:05:31.027Z,39.38
2018-01-06T11:06:31.023Z,39.38
2018-01-06T11:07:31.021Z,39.38
2018-01-06T11:08:31.015Z,39.38
2018-01-06T11:09:31.014Z,39.38
2018-01-06T11:10:31.007Z,39.38
2018-01-06T11:11:31.008Z,39.38
2018-01-06T11:12:30.994Z,39.38
2018-01-06T11:13:30.991Z,39.38
2018-01-06T11:14:30.998Z,39.38
2018-01-06T11:15:30.996Z,39.38
2018-01-06T11:16:30.992Z,39.38
2018-01-06T11:17:30.990Z,39.38
2018-01-06T11:18:31.001Z,39.38
2018-01-06T11:19:30.989Z,39.38
2018-01-06T11:20:30.995Z,39.38
2018-01-06T11:21:30.988Z,33.75
2018-01-06T11:22:30.985Z,33.75
2018-01-06T11:23:30.986Z,33.75
2018-01-06T11:24:30.974Z,33.75
2018-01-06T11:25:30.982Z,33.75
2018-01-06T11:26:30.974Z,33.75
2018-01-06T11:27:30.965Z,33.75
2018-01-06T11:28:30.962Z,33.75
2018-01-06T11:29:30.969Z,33.75
2018-01-06T11:30:30.957Z,39.38
2018-01-06T11:31:30.957Z,39.38
2018-01-06T11:32:30.951Z,39.38
2018-01-06T11:33:30.957Z,39.38
2018-01-06T11:34:30.955Z,39.38
2018-01-06T11:35:30.942Z,39.38
2018-01-06T11:36:30.948Z,45.00
2018-01-06T11:37:30.942Z,39.38
2018-01-06T11:38:30.939Z,39.38
2018-01-06T11:39:30.989Z,39.38
2018-01-06T11:40:30.933Z,39.38
2018-01-06T11:41:30.935Z,45.00
2018-01-06T11:42:30.932Z,39.38
2018-01-06T11:43:30.920Z,39.38
2018-01-06T11:44:30.923Z,39.38
2018-01-06T11:45:30.922Z,33.75
2018-01-06T11:46:30.910Z,28.13
2018-01-06T11:47:30.912Z,28.13
2018-01-06T11:48:30.914Z,28.13
2018-01-06T11:49:30.911Z,33.75
2018-01-06T11:50:30.904Z,39.38
2018-01-06T11:51:30.901Z,33.75
2018-01-06T11:52:30.901Z,39.38
2018-01-06T11:53:30.898Z,45.00
2018-01-06T11:54:30.900Z,45.00
2018-01-06T11:55:30.893Z,33.75
2018-01-06T11:56:30.882Z,22.50
2018-01-06T11:57:30.880Z,22.50
2018-01-06T11:58:30.888Z,33.75
2018-01-06T11:59:30.880Z,39.38
2018-01-06T12:00:30.881Z,39.38
2018-01-06T12:01:30.881Z,45.00
2018-01-06T12:02:30.875Z,45.00
2018-01-06T12:03:30.872Z,45.00
2018-01-06T12:04:30.865Z,50.63
2018-01-06T12:05:30.867Z,56.25
2018-01-06T12:06:30.863Z,56.25
2018-01-06T12:07:30.861Z,61.88
2018-01-06T12:08:30.858Z,61.88
2018-01-06T12:09:30.855Z,61.88
2018-01-06T12:10:30.852Z,67.50
2018-01-06T12:11:30.850Z,67.50
2018-01-06T12:12:30.846Z,67.50
2018-01-06T12:13:30.844Z,67.50
2018-01-06T12:14:30.838Z,67.50
2018-01-06T12:15:30.839Z,61.88
2018-01-06T12:16:30.832Z,61.88
2018-01-06T12:17:30.830Z,61.88
2018-01-06T12:18:30.834Z,61.88
2018-01-06T12:19:30.825Z,61.88
2018-01-06T12:20:30.823Z,56.25
2018-01-06T12:21:30.825Z,56.25
2018-01-06T12:22:30.823Z,56.25
2018-01-06T12:23:30.820Z,50.63
2018-01-06T12:24:30.813Z,50.63
2018-01-06T12:25:30.815Z,45.00
2018-01-06T12:26:30.813Z,39.38
2018-01-06T12:27:30.791Z,45.00
2018-01-06T12:28:30.789Z,50.63
2018-01-06T12:29:30.787Z,56.25
2018-01-06T12:30:30.783Z,56.25
2018-01-06T12:31:30.781Z,50.63
2018-01-06T12:32:30.779Z,50.63
2018-01-06T12:33:30.782Z,50.63
2018-01-06T12:34:30.776Z,45.00
2018-01-06T12:35:30.773Z,50.63
2018-01-06T12:36:30.768Z,50.63
2018-01-06T12:37:30.765Z,50.63
2018-01-06T12:38:30.764Z,56.25
2018-01-06T12:39:30.761Z,61.88
2018-01-06T12:40:30.753Z,61.88
2018-01-06T12:41:30.755Z,61.88
2018-01-06T12:42:30.749Z,61.88
2018-01-06T12:43:30.747Z,61.88
2018-01-06T12:44:30.746Z,61.88
2018-01-06T12:45:30.746Z,56.25
2018-01-06T12:46:30.739Z,56.25
2018-01-06T12:47:30.741Z,61.88
2018-01-06T12:48:30.738Z,67.50
2018-01-06T12:49:30.736Z,61.88
2018-01-06T12:50:30.730Z,67.50
2018-01-06T12:51:30.732Z,67.50
2018-01-06T12:52:30.729Z,67.50
2018-01-06T12:53:30.723Z,67.50
2018-01-06T12:54:30.725Z,61.88
2018-01-06T12:55:30.723Z,67.50
2018-01-06T12:56:30.720Z,73.13
2018-01-06T12:57:30.717Z,73.13
2018-01-06T12:58:30.712Z,61.88
2018-01-06T12:59:30.714Z,67.50
2018-01-06T13:00:30.711Z,73.13
2018-01-06T13:01:30.710Z,67.50
2018-01-06T13:02:30.723Z,61.88
2018-01-06T13:03:30.721Z,61.88
2018-01-06T13:04:30.704Z,61.88
2018-01-06T13:05:30.698Z,50.63
2018-01-06T13:06:30.700Z,45.00
2018-01-06T13:07:30.698Z,45.00
2018-01-06T13:08:30.711Z,45.00
2018-01-06T13:09:30.710Z,45.00
2018-01-06T13:10:30.707Z,39.38
2018-01-06T13:11:30.708Z,39.38